sensor_id;sensor_type;location;lat;lon;timestamp;temperature;humidity
64833;HTU21D;51290;45.060;38.948;2023-07-16T00:00:40;19.71;71.78
64833;HTU21D;51290;45.060;38.948;2023-07-16T00:03:06;19.68;71.81
64833;HTU21D;51290;45.060;38.948;2023-07-16T00:05:32;19.65;71.84
64833;HTU21D;51290;45.060;38.948;2023-07-16T00:07:58;19.63;71.83
64833;HTU21D;51290;45.060;38.948;2023-07-16T00:10:24;19.60;71.88
64833;HTU21D;51290;45.060;38.948;2023-07-16T00:12:50;19.58;72.00
64833;HTU21D;51290;45.060;38.948;2023-07-16T00:15:16;19.58;72.06
64833;HTU21D;51290;45.060;38.948;2023-07-16T00:17:42;19.58;72.05
64833;HTU21D;51290;45.060;38.948;2023-07-16T00:20:08;19.55;72.00
64833;HTU21D;51290;45.060;38.948;2023-07-16T00:22:35;19.54;72.04
64833;HTU21D;51290;45.060;38.948;2023-07-16T00:25:01;19.53;72.04
64833;HTU21D;51290;45.060;38.948;2023-07-16T00:27:28;19.50;72.03
64833;HTU21D;51290;45.060;38.948;2023-07-16T00:29:54;19.48;72.11
64833;HTU21D;51290;45.060;38.948;2023-07-16T00:32:20;19.45;72.16
64833;HTU21D;51290;45.060;38.948;2023-07-16T00:34:46;19.44;72.17
64833;HTU21D;51290;45.060;38.948;2023-07-16T00:37:12;19.44;72.20
64833;HTU21D;51290;45.060;38.948;2023-07-16T00:39:39;19.42;72.22
64833;HTU21D;51290;45.060;38.948;2023-07-16T00:42:05;19.42;72.29
64833;HTU21D;51290;45.060;38.948;2023-07-16T00:44:31;19.39;72.34
64833;HTU21D;51290;45.060;38.948;2023-07-16T00:46:57;19.41;72.36
64833;HTU21D;51290;45.060;38.948;2023-07-16T00:49:24;19.44;72.35
64833;HTU21D;51290;45.060;38.948;2023-07-16T00:51:52;19.45;72.29
64833;HTU21D;51290;45.060;38.948;2023-07-16T00:54:19;19.47;72.29
64833;HTU21D;51290;45.060;38.948;2023-07-16T00:56:45;19.48;72.27
64833;HTU21D;51290;45.060;38.948;2023-07-16T00:59:11;19.47;72.28
64833;HTU21D;51290;45.060;38.948;2023-07-16T01:01:39;19.47;72.32
64833;HTU21D;51290;45.060;38.948;2023-07-16T01:04:05;19.48;72.29
64833;HTU21D;51290;45.060;38.948;2023-07-16T01:06:35;19.48;72.23
64833;HTU21D;51290;45.060;38.948;2023-07-16T01:09:13;19.50;72.17
64833;HTU21D;51290;45.060;38.948;2023-07-16T01:11:41;19.51;72.14
64833;HTU21D;51290;45.060;38.948;2023-07-16T01:14:08;19.51;72.16
64833;HTU21D;51290;45.060;38.948;2023-07-16T01:16:34;19.46;72.12
64833;HTU21D;51290;45.060;38.948;2023-07-16T01:19:00;19.45;72.18
64833;HTU21D;51290;45.060;38.948;2023-07-16T01:21:38;19.43;72.28
64833;HTU21D;51290;45.060;38.948;2023-07-16T01:30:05;19.42;72.22
64833;HTU21D;51290;45.060;38.948;2023-07-16T01:32:36;19.43;72.27
64833;HTU21D;51290;45.060;38.948;2023-07-16T01:35:04;19.44;72.27
64833;HTU21D;51290;45.060;38.948;2023-07-16T01:37:32;19.43;72.25
64833;HTU21D;51290;45.060;38.948;2023-07-16T01:39:58;19.43;72.25
64833;HTU21D;51290;45.060;38.948;2023-07-16T01:42:24;19.42;72.32
64833;HTU21D;51290;45.060;38.948;2023-07-16T01:44:50;19.43;72.35
64833;HTU21D;51290;45.060;38.948;2023-07-16T01:50:10;19.46;72.29
64833;HTU21D;51290;45.060;38.948;2023-07-16T01:52:36;19.48;72.26
64833;HTU21D;51290;45.060;38.948;2023-07-16T01:55:02;19.47;72.25
64833;HTU21D;51290;45.060;38.948;2023-07-16T01:57:29;19.45;72.26
64833;HTU21D;51290;45.060;38.948;2023-07-16T01:59:55;19.43;72.33
64833;HTU21D;51290;45.060;38.948;2023-07-16T02:02:22;19.43;72.41
64833;HTU21D;51290;45.060;38.948;2023-07-16T02:04:48;19.42;72.44
64833;HTU21D;51290;45.060;38.948;2023-07-16T02:07:14;19.41;72.46
64833;HTU21D;51290;45.060;38.948;2023-07-16T02:09:40;19.40;72.49
64833;HTU21D;51290;45.060;38.948;2023-07-16T02:12:06;19.40;72.54
64833;HTU21D;51290;45.060;38.948;2023-07-16T02:14:32;19.43;72.60
64833;HTU21D;51290;45.060;38.948;2023-07-16T02:16:58;19.46;72.65
64833;HTU21D;51290;45.060;38.948;2023-07-16T02:19:24;19.51;72.66
64833;HTU21D;51290;45.060;38.948;2023-07-16T02:21:51;19.56;72.70
64833;HTU21D;51290;45.060;38.948;2023-07-16T02:24:17;19.62;72.68
64833;HTU21D;51290;45.060;38.948;2023-07-16T02:26:43;19.71;72.60
64833;HTU21D;51290;45.060;38.948;2023-07-16T02:29:11;19.80;72.49
64833;HTU21D;51290;45.060;38.948;2023-07-16T02:31:37;19.87;72.41
64833;HTU21D;51290;45.060;38.948;2023-07-16T02:34:03;19.97;72.30
64833;HTU21D;51290;45.060;38.948;2023-07-16T02:36:32;20.03;72.19
64833;HTU21D;51290;45.060;38.948;2023-07-16T02:38:58;20.11;72.09
64833;HTU21D;51290;45.060;38.948;2023-07-16T02:41:24;20.17;72.01
64833;HTU21D;51290;45.060;38.948;2023-07-16T02:44:03;20.27;71.96
64833;HTU21D;51290;45.060;38.948;2023-07-16T02:46:29;20.37;71.83
64833;HTU21D;51290;45.060;38.948;2023-07-16T02:48:55;20.47;71.75
64833;HTU21D;51290;45.060;38.948;2023-07-16T02:51:21;20.59;71.61
64833;HTU21D;51290;45.060;38.948;2023-07-16T02:53:47;20.89;71.58
64833;HTU21D;51290;45.060;38.948;2023-07-16T02:56:13;21.50;70.93
64833;HTU21D;51290;45.060;38.948;2023-07-16T02:58:40;22.29;69.58
64833;HTU21D;51290;45.060;38.948;2023-07-16T03:01:06;23.03;67.95
64833;HTU21D;51290;45.060;38.948;2023-07-16T03:03:32;23.65;66.69
64833;HTU21D;51290;45.060;38.948;2023-07-16T03:05:58;24.34;65.52
64833;HTU21D;51290;45.060;38.948;2023-07-16T03:08:24;24.90;64.31
64833;HTU21D;51290;45.060;38.948;2023-07-16T03:10:56;25.25;63.44
64833;HTU21D;51290;45.060;38.948;2023-07-16T03:13:23;25.50;63.08
64833;HTU21D;51290;45.060;38.948;2023-07-16T03:15:49;26.01;62.35
64833;HTU21D;51290;45.060;38.948;2023-07-16T03:18:18;26.71;61.05
64833;HTU21D;51290;45.060;38.948;2023-07-16T03:20:44;27.45;59.70
64833;HTU21D;51290;45.060;38.948;2023-07-16T03:23:10;28.15;58.20
64833;HTU21D;51290;45.060;38.948;2023-07-16T03:25:36;28.76;57.04
64833;HTU21D;51290;45.060;38.948;2023-07-16T03:28:02;29.21;55.89
64833;HTU21D;51290;45.060;38.948;2023-07-16T03:30:30;29.72;55.04
64833;HTU21D;51290;45.060;38.948;2023-07-16T03:32:57;30.18;54.17
64833;HTU21D;51290;45.060;38.948;2023-07-16T03:35:25;30.61;53.25
64833;HTU21D;51290;45.060;38.948;2023-07-16T03:37:51;31.00;52.40
64833;HTU21D;51290;45.060;38.948;2023-07-16T03:40:23;31.30;51.53
64833;HTU21D;51290;45.060;38.948;2023-07-16T03:42:49;31.65;50.95
64833;HTU21D;51290;45.060;38.948;2023-07-16T03:45:15;31.97;50.14
64833;HTU21D;51290;45.060;38.948;2023-07-16T03:47:42;32.25;49.50
64833;HTU21D;51290;45.060;38.948;2023-07-16T03:50:08;32.53;48.92
64833;HTU21D;51290;45.060;38.948;2023-07-16T03:52:34;32.78;48.24
64833;HTU21D;51290;45.060;38.948;2023-07-16T03:55:00;33.05;47.63
64833;HTU21D;51290;45.060;38.948;2023-07-16T03:57:29;33.28;46.85
64833;HTU21D;51290;45.060;38.948;2023-07-16T03:59:56;33.45;46.59
64833;HTU21D;51290;45.060;38.948;2023-07-16T04:02:24;33.68;46.05
64833;HTU21D;51290;45.060;38.948;2023-07-16T04:04:50;33.87;45.45
64833;HTU21D;51290;45.060;38.948;2023-07-16T04:07:17;33.97;45.08
64833;HTU21D;51290;45.060;38.948;2023-07-16T04:09:43;34.12;44.74
64833;HTU21D;51290;45.060;38.948;2023-07-16T04:12:09;34.23;44.35
64833;HTU21D;51290;45.060;38.948;2023-07-16T04:14:35;34.40;43.97
64833;HTU21D;51290;45.060;38.948;2023-07-16T04:17:01;34.57;43.51
64833;HTU21D;51290;45.060;38.948;2023-07-16T04:19:28;34.75;43.16
64833;HTU21D;51290;45.060;38.948;2023-07-16T04:21:54;34.93;42.84
64833;HTU21D;51290;45.060;38.948;2023-07-16T04:24:20;35.12;42.46
64833;HTU21D;51290;45.060;38.948;2023-07-16T04:26:46;35.20;41.90
64833;HTU21D;51290;45.060;38.948;2023-07-16T04:29:12;34.99;41.90
64833;HTU21D;51290;45.060;38.948;2023-07-16T04:31:38;34.84;42.07
64833;HTU21D;51290;45.060;38.948;2023-07-16T04:34:04;34.84;42.03
64833;HTU21D;51290;45.060;38.948;2023-07-16T04:36:30;34.93;41.84
64833;HTU21D;51290;45.060;38.948;2023-07-16T04:38:56;34.80;41.74
64833;HTU21D;51290;45.060;38.948;2023-07-16T04:41:22;34.42;42.45
64833;HTU21D;51290;45.060;38.948;2023-07-16T04:43:48;33.85;43.55
64833;HTU21D;51290;45.060;38.948;2023-07-16T04:46:14;33.12;44.82
64833;HTU21D;51290;45.060;38.948;2023-07-16T04:48:42;32.41;46.09
64833;HTU21D;51290;45.060;38.948;2023-07-16T04:51:08;31.80;47.12
64833;HTU21D;51290;45.060;38.948;2023-07-16T04:53:36;31.24;48.03
64833;HTU21D;51290;45.060;38.948;2023-07-16T04:56:02;30.82;48.81
64833;HTU21D;51290;45.060;38.948;2023-07-16T04:58:28;30.48;49.45
64833;HTU21D;51290;45.060;38.948;2023-07-16T05:01:00;30.22;50.02
64833;HTU21D;51290;45.060;38.948;2023-07-16T05:03:26;30.01;50.40
64833;HTU21D;51290;45.060;38.948;2023-07-16T05:05:52;29.85;50.69
64833;HTU21D;51290;45.060;38.948;2023-07-16T05:08:18;29.68;50.96
64833;HTU21D;51290;45.060;38.948;2023-07-16T05:10:45;29.56;51.21
64833;HTU21D;51290;45.060;38.948;2023-07-16T05:13:11;29.44;51.38
64833;HTU21D;51290;45.060;38.948;2023-07-16T05:15:37;29.34;51.55
64833;HTU21D;51290;45.060;38.948;2023-07-16T05:18:03;29.26;51.78
64833;HTU21D;51290;45.060;38.948;2023-07-16T05:20:29;29.18;51.94
64833;HTU21D;51290;45.060;38.948;2023-07-16T05:22:56;29.08;51.98
64833;HTU21D;51290;45.060;38.948;2023-07-16T05:25:22;28.98;52.17
64833;HTU21D;51290;45.060;38.948;2023-07-16T05:27:48;28.89;52.47
64833;HTU21D;51290;45.060;38.948;2023-07-16T05:30:14;28.84;52.68
64833;HTU21D;51290;45.060;38.948;2023-07-16T05:32:40;28.79;52.78
64833;HTU21D;51290;45.060;38.948;2023-07-16T05:35:06;28.75;52.84
64833;HTU21D;51290;45.060;38.948;2023-07-16T05:37:32;28.68;52.59
64833;HTU21D;51290;45.060;38.948;2023-07-16T05:39:58;28.58;52.34
64833;HTU21D;51290;45.060;38.948;2023-07-16T05:42:25;28.45;52.17
64833;HTU21D;51290;45.060;38.948;2023-07-16T05:44:51;28.32;52.01
64833;HTU21D;51290;45.060;38.948;2023-07-16T05:47:17;28.19;51.94
64833;HTU21D;51290;45.060;38.948;2023-07-16T05:49:43;28.11;51.97
64833;HTU21D;51290;45.060;38.948;2023-07-16T05:52:09;28.06;51.95
64833;HTU21D;51290;45.060;38.948;2023-07-16T05:54:35;28.03;51.91
64833;HTU21D;51290;45.060;38.948;2023-07-16T05:57:01;27.99;51.66
64833;HTU21D;51290;45.060;38.948;2023-07-16T05:59:27;27.94;51.75
64833;HTU21D;51290;45.060;38.948;2023-07-16T06:01:53;27.87;51.06
64833;HTU21D;51290;45.060;38.948;2023-07-16T06:04:19;27.81;51.17
64833;HTU21D;51290;45.060;38.948;2023-07-16T06:06:45;27.75;51.37
64833;HTU21D;51290;45.060;38.948;2023-07-16T06:09:11;27.69;51.69
64833;HTU21D;51290;45.060;38.948;2023-07-16T06:11:37;27.69;51.97
64833;HTU21D;51290;45.060;38.948;2023-07-16T06:14:03;27.78;52.33
64833;HTU21D;51290;45.060;38.948;2023-07-16T06:16:29;27.94;52.43
64833;HTU21D;51290;45.060;38.948;2023-07-16T06:18:55;28.09;52.35
64833;HTU21D;51290;45.060;38.948;2023-07-16T06:21:21;28.18;52.24
64833;HTU21D;51290;45.060;38.948;2023-07-16T06:23:47;28.37;52.15
64833;HTU21D;51290;45.060;38.948;2023-07-16T06:26:13;28.52;51.68
64833;HTU21D;51290;45.060;38.948;2023-07-16T06:28:39;28.63;51.06
64833;HTU21D;51290;45.060;38.948;2023-07-16T06:31:05;28.71;50.09
64833;HTU21D;51290;45.060;38.948;2023-07-16T06:33:31;28.76;49.70
64833;HTU21D;51290;45.060;38.948;2023-07-16T06:35:57;28.80;49.27
64833;HTU21D;51290;45.060;38.948;2023-07-16T06:38:23;28.90;48.96
64833;HTU21D;51290;45.060;38.948;2023-07-16T06:40:50;28.97;48.37
64833;HTU21D;51290;45.060;38.948;2023-07-16T06:43:17;29.03;47.86
64833;HTU21D;51290;45.060;38.948;2023-07-16T06:45:51;29.15;47.09
64833;HTU21D;51290;45.060;38.948;2023-07-16T06:48:17;29.22;46.69
64833;HTU21D;51290;45.060;38.948;2023-07-16T06:50:44;29.29;46.34
64833;HTU21D;51290;45.060;38.948;2023-07-16T06:53:10;29.33;46.09
64833;HTU21D;51290;45.060;38.948;2023-07-16T06:55:36;29.39;45.66
64833;HTU21D;51290;45.060;38.948;2023-07-16T06:58:03;29.41;45.64
64833;HTU21D;51290;45.060;38.948;2023-07-16T07:00:29;29.42;45.88
64833;HTU21D;51290;45.060;38.948;2023-07-16T07:02:55;29.46;46.03
64833;HTU21D;51290;45.060;38.948;2023-07-16T07:05:22;29.46;45.73
64833;HTU21D;51290;45.060;38.948;2023-07-16T07:07:48;29.50;45.43
64833;HTU21D;51290;45.060;38.948;2023-07-16T07:10:14;29.57;45.56
64833;HTU21D;51290;45.060;38.948;2023-07-16T07:12:40;29.61;45.72
64833;HTU21D;51290;45.060;38.948;2023-07-16T07:15:09;29.66;45.25
64833;HTU21D;51290;45.060;38.948;2023-07-16T07:17:36;29.64;45.16
64833;HTU21D;51290;45.060;38.948;2023-07-16T07:20:02;29.65;45.32
64833;HTU21D;51290;45.060;38.948;2023-07-16T07:22:29;29.70;45.28
64833;HTU21D;51290;45.060;38.948;2023-07-16T07:24:55;29.75;45.27
64833;HTU21D;51290;45.060;38.948;2023-07-16T07:27:21;29.82;45.19
64833;HTU21D;51290;45.060;38.948;2023-07-16T07:29:47;29.90;45.01
64833;HTU21D;51290;45.060;38.948;2023-07-16T07:32:19;29.91;44.70
64833;HTU21D;51290;45.060;38.948;2023-07-16T07:34:46;29.96;44.61
64833;HTU21D;51290;45.060;38.948;2023-07-16T07:37:12;30.02;44.61
64833;HTU21D;51290;45.060;38.948;2023-07-16T07:39:38;30.12;44.69
64833;HTU21D;51290;45.060;38.948;2023-07-16T07:42:04;30.26;44.62
64833;HTU21D;51290;45.060;38.948;2023-07-16T07:44:31;30.39;44.35
64833;HTU21D;51290;45.060;38.948;2023-07-16T07:46:57;30.44;44.16
64833;HTU21D;51290;45.060;38.948;2023-07-16T07:49:26;30.49;43.98
64833;HTU21D;51290;45.060;38.948;2023-07-16T07:51:52;30.50;43.76
64833;HTU21D;51290;45.060;38.948;2023-07-16T07:54:18;30.48;43.74
64833;HTU21D;51290;45.060;38.948;2023-07-16T07:56:45;30.48;43.75
64833;HTU21D;51290;45.060;38.948;2023-07-16T07:59:12;30.50;43.80
64833;HTU21D;51290;45.060;38.948;2023-07-16T08:01:38;30.55;43.79
64833;HTU21D;51290;45.060;38.948;2023-07-16T08:04:04;30.66;43.56
64833;HTU21D;51290;45.060;38.948;2023-07-16T08:06:30;30.79;43.45
64833;HTU21D;51290;45.060;38.948;2023-07-16T08:08:56;30.96;43.25
64833;HTU21D;51290;45.060;38.948;2023-07-16T08:11:22;31.09;42.37
64833;HTU21D;51290;45.060;38.948;2023-07-16T08:13:49;31.11;42.31
64833;HTU21D;51290;45.060;38.948;2023-07-16T08:16:15;31.08;42.29
64833;HTU21D;51290;45.060;38.948;2023-07-16T08:18:41;30.97;42.22
64833;HTU21D;51290;45.060;38.948;2023-07-16T08:21:07;30.82;42.24
64833;HTU21D;51290;45.060;38.948;2023-07-16T08:23:33;30.55;42.29
64833;HTU21D;51290;45.060;38.948;2023-07-16T08:25:59;30.11;42.13
64833;HTU21D;51290;45.060;38.948;2023-07-16T08:28:25;29.29;43.36
64833;HTU21D;51290;45.060;38.948;2023-07-16T08:30:51;28.09;44.81
64833;HTU21D;51290;45.060;38.948;2023-07-16T08:33:17;26.51;47.56
64833;HTU21D;51290;45.060;38.948;2023-07-16T08:35:43;24.77;53.35
64833;HTU21D;51290;45.060;38.948;2023-07-16T08:38:12;23.41;56.75
64833;HTU21D;51290;45.060;38.948;2023-07-16T08:40:38;22.36;58.84
64833;HTU21D;51290;45.060;38.948;2023-07-16T08:43:08;21.60;60.27
64833;HTU21D;51290;45.060;38.948;2023-07-16T08:45:39;21.17;61.52
64833;HTU21D;51290;45.060;38.948;2023-07-16T08:48:12;20.94;61.97
64833;HTU21D;51290;45.060;38.948;2023-07-16T08:50:38;20.86;62.53
64833;HTU21D;51290;45.060;38.948;2023-07-16T08:53:05;20.84;63.53
64833;HTU21D;51290;45.060;38.948;2023-07-16T08:55:32;20.81;64.03
64833;HTU21D;51290;45.060;38.948;2023-07-16T08:57:59;20.84;64.71
64833;HTU21D;51290;45.060;38.948;2023-07-16T09:00:26;20.92;65.39
64833;HTU21D;51290;45.060;38.948;2023-07-16T09:02:53;21.09;65.74
64833;HTU21D;51290;45.060;38.948;2023-07-16T09:05:22;21.29;65.98
64833;HTU21D;51290;45.060;38.948;2023-07-16T09:07:49;21.46;65.97
64833;HTU21D;51290;45.060;38.948;2023-07-16T09:10:15;21.64;66.02
64833;HTU21D;51290;45.060;38.948;2023-07-16T09:12:46;21.85;66.21
64833;HTU21D;51290;45.060;38.948;2023-07-16T09:15:17;22.08;66.35
64833;HTU21D;51290;45.060;38.948;2023-07-16T09:17:47;22.29;66.23
64833;HTU21D;51290;45.060;38.948;2023-07-16T09:20:18;22.48;66.30
64833;HTU21D;51290;45.060;38.948;2023-07-16T09:22:44;22.62;66.17
64833;HTU21D;51290;45.060;38.948;2023-07-16T09:25:11;22.66;66.20
64833;HTU21D;51290;45.060;38.948;2023-07-16T09:27:37;22.66;66.39
64833;HTU21D;51290;45.060;38.948;2023-07-16T09:30:04;22.69;66.68
64833;HTU21D;51290;45.060;38.948;2023-07-16T09:32:38;22.76;67.11
64833;HTU21D;51290;45.060;38.948;2023-07-16T09:35:13;22.84;67.46
64833;HTU21D;51290;45.060;38.948;2023-07-16T09:37:41;22.97;67.68
64833;HTU21D;51290;45.060;38.948;2023-07-16T09:40:12;23.10;68.03
64833;HTU21D;51290;45.060;38.948;2023-07-16T09:42:41;23.25;68.11
64833;HTU21D;51290;45.060;38.948;2023-07-16T09:45:17;23.43;68.23
64833;HTU21D;51290;45.060;38.948;2023-07-16T09:47:44;23.65;68.21
64833;HTU21D;51290;45.060;38.948;2023-07-16T09:50:11;23.89;68.02
64833;HTU21D;51290;45.060;38.948;2023-07-16T09:52:37;24.09;67.59
64833;HTU21D;51290;45.060;38.948;2023-07-16T09:55:08;24.24;67.37
64833;HTU21D;51290;45.060;38.948;2023-07-16T09:57:37;24.35;67.25
64833;HTU21D;51290;45.060;38.948;2023-07-16T10:00:07;24.43;66.96
64833;HTU21D;51290;45.060;38.948;2023-07-16T10:02:42;24.50;66.91
64833;HTU21D;51290;45.060;38.948;2023-07-16T10:05:18;24.58;66.95
64833;HTU21D;51290;45.060;38.948;2023-07-16T10:07:56;24.69;66.98
64833;HTU21D;51290;45.060;38.948;2023-07-16T10:10:45;24.80;66.76
64833;HTU21D;51290;45.060;38.948;2023-07-16T10:13:14;24.88;66.38
64833;HTU21D;51290;45.060;38.948;2023-07-16T10:15:52;24.90;66.09
64833;HTU21D;51290;45.060;38.948;2023-07-16T10:18:31;24.89;66.02
64833;HTU21D;51290;45.060;38.948;2023-07-16T10:21:08;24.98;65.98
64833;HTU21D;51290;45.060;38.948;2023-07-16T10:23:39;25.13;65.96
64833;HTU21D;51290;45.060;38.948;2023-07-16T10:26:07;25.35;65.70
64833;HTU21D;51290;45.060;38.948;2023-07-16T10:28:34;25.60;65.18
64833;HTU21D;51290;45.060;38.948;2023-07-16T10:31:01;25.81;64.60
64833;HTU21D;51290;45.060;38.948;2023-07-16T10:33:27;25.95;63.79
64833;HTU21D;51290;45.060;38.948;2023-07-16T10:35:53;26.01;63.31
64833;HTU21D;51290;45.060;38.948;2023-07-16T10:38:22;26.03;62.99
64833;HTU21D;51290;45.060;38.948;2023-07-16T10:40:48;26.08;62.54
64833;HTU21D;51290;45.060;38.948;2023-07-16T10:43:14;26.16;62.19
64833;HTU21D;51290;45.060;38.948;2023-07-16T10:45:41;26.20;61.19
64833;HTU21D;51290;45.060;38.948;2023-07-16T10:48:07;26.18;60.80
64833;HTU21D;51290;45.060;38.948;2023-07-16T10:50:34;26.15;60.37
64833;HTU21D;51290;45.060;38.948;2023-07-16T10:53:01;26.09;59.40
64833;HTU21D;51290;45.060;38.948;2023-07-16T10:55:28;26.07;58.00
64833;HTU21D;51290;45.060;38.948;2023-07-16T10:57:55;26.11;57.68
64833;HTU21D;51290;45.060;38.948;2023-07-16T11:00:32;26.21;56.05
64833;HTU21D;51290;45.060;38.948;2023-07-16T11:03:05;26.30;54.75
64833;HTU21D;51290;45.060;38.948;2023-07-16T11:05:31;26.36;54.26
64833;HTU21D;51290;45.060;38.948;2023-07-16T11:07:57;26.46;53.11
64833;HTU21D;51290;45.060;38.948;2023-07-16T11:10:28;26.52;51.15
64833;HTU21D;51290;45.060;38.948;2023-07-16T11:12:55;26.58;49.16
64833;HTU21D;51290;45.060;38.948;2023-07-16T11:15:34;26.65;48.03
64833;HTU21D;51290;45.060;38.948;2023-07-16T11:18:04;26.77;48.98
64833;HTU21D;51290;45.060;38.948;2023-07-16T11:20:30;26.91;49.71
64833;HTU21D;51290;45.060;38.948;2023-07-16T11:22:59;27.04;49.83
64833;HTU21D;51290;45.060;38.948;2023-07-16T11:25:26;27.17;49.66
64833;HTU21D;51290;45.060;38.948;2023-07-16T11:27:55;27.27;49.08
64833;HTU21D;51290;45.060;38.948;2023-07-16T11:30:25;27.34;44.90
64833;HTU21D;51290;45.060;38.948;2023-07-16T11:32:53;27.36;45.57
64833;HTU21D;51290;45.060;38.948;2023-07-16T11:35:20;27.41;45.70
64833;HTU21D;51290;45.060;38.948;2023-07-16T11:37:47;27.45;45.88
64833;HTU21D;51290;45.060;38.948;2023-07-16T11:40:20;27.49;45.36
64833;HTU21D;51290;45.060;38.948;2023-07-16T11:42:46;27.49;42.43
64833;HTU21D;51290;45.060;38.948;2023-07-16T11:45:23;27.45;40.99
64833;HTU21D;51290;45.060;38.948;2023-07-16T11:47:52;27.41;42.40
64833;HTU21D;51290;45.060;38.948;2023-07-16T11:50:18;27.38;42.65
64833;HTU21D;51290;45.060;38.948;2023-07-16T11:52:52;27.41;43.64
64833;HTU21D;51290;45.060;38.948;2023-07-16T11:55:19;27.46;42.22
64833;HTU21D;51290;45.060;38.948;2023-07-16T11:57:45;27.47;41.81
64833;HTU21D;51290;45.060;38.948;2023-07-16T12:00:11;27.49;42.51
64833;HTU21D;51290;45.060;38.948;2023-07-16T12:02:39;27.52;41.75
64833;HTU21D;51290;45.060;38.948;2023-07-16T12:05:05;27.57;42.08
64833;HTU21D;51290;45.060;38.948;2023-07-16T12:07:36;27.64;42.57
64833;HTU21D;51290;45.060;38.948;2023-07-16T12:10:04;27.70;42.32
64833;HTU21D;51290;45.060;38.948;2023-07-16T12:12:35;27.74;42.17
64833;HTU21D;51290;45.060;38.948;2023-07-16T12:15:08;27.71;41.77
64833;HTU21D;51290;45.060;38.948;2023-07-16T12:17:34;27.66;40.26
64833;HTU21D;51290;45.060;38.948;2023-07-16T12:20:07;27.58;39.64
64833;HTU21D;51290;45.060;38.948;2023-07-16T12:22:34;27.58;40.69
64833;HTU21D;51290;45.060;38.948;2023-07-16T12:25:02;27.55;40.25
64833;HTU21D;51290;45.060;38.948;2023-07-16T12:27:28;27.51;39.67
64833;HTU21D;51290;45.060;38.948;2023-07-16T12:29:54;27.42;39.30
64833;HTU21D;51290;45.060;38.948;2023-07-16T12:32:20;27.35;39.47
64833;HTU21D;51290;45.060;38.948;2023-07-16T12:34:46;27.32;40.10
64833;HTU21D;51290;45.060;38.948;2023-07-16T12:37:12;27.26;40.43
64833;HTU21D;51290;45.060;38.948;2023-07-16T12:39:39;27.27;40.91
64833;HTU21D;51290;45.060;38.948;2023-07-16T12:42:05;27.32;41.15
64833;HTU21D;51290;45.060;38.948;2023-07-16T12:44:34;27.41;41.24
64833;HTU21D;51290;45.060;38.948;2023-07-16T12:47:00;27.46;41.21
64833;HTU21D;51290;45.060;38.948;2023-07-16T12:49:26;27.50;41.42
64833;HTU21D;51290;45.060;38.948;2023-07-16T12:51:52;27.55;41.72
64833;HTU21D;51290;45.060;38.948;2023-07-16T12:54:18;27.65;41.77
64833;HTU21D;51290;45.060;38.948;2023-07-16T12:56:44;27.73;41.78
64833;HTU21D;51290;45.060;38.948;2023-07-16T12:59:11;27.82;41.55
64833;HTU21D;51290;45.060;38.948;2023-07-16T13:01:37;27.86;41.45
64833;HTU21D;51290;45.060;38.948;2023-07-16T13:04:04;27.88;41.43
64833;HTU21D;51290;45.060;38.948;2023-07-16T13:06:30;27.87;41.27
64833;HTU21D;51290;45.060;38.948;2023-07-16T13:08:56;27.84;41.39
64833;HTU21D;51290;45.060;38.948;2023-07-16T13:11:22;27.73;41.03
64833;HTU21D;51290;45.060;38.948;2023-07-16T13:13:48;27.64;41.31
64833;HTU21D;51290;45.060;38.948;2023-07-16T13:16:14;27.52;41.57
64833;HTU21D;51290;45.060;38.948;2023-07-16T13:18:40;27.45;41.74
64833;HTU21D;51290;45.060;38.948;2023-07-16T13:21:06;27.40;41.86
64833;HTU21D;51290;45.060;38.948;2023-07-16T13:23:32;27.38;41.65
64833;HTU21D;51290;45.060;38.948;2023-07-16T13:25:59;27.35;41.74
64833;HTU21D;51290;45.060;38.948;2023-07-16T13:28:25;27.30;41.93
64833;HTU21D;51290;45.060;38.948;2023-07-16T13:30:51;27.30;42.13
64833;HTU21D;51290;45.060;38.948;2023-07-16T13:33:17;27.30;42.03
64833;HTU21D;51290;45.060;38.948;2023-07-16T13:35:43;27.31;42.17
64833;HTU21D;51290;45.060;38.948;2023-07-16T13:38:09;27.34;42.07
64833;HTU21D;51290;45.060;38.948;2023-07-16T13:40:42;27.32;41.54
64833;HTU21D;51290;45.060;38.948;2023-07-16T13:43:09;27.35;41.26
64833;HTU21D;51290;45.060;38.948;2023-07-16T13:45:35;27.38;41.26
64833;HTU21D;51290;45.060;38.948;2023-07-16T13:48:01;27.43;41.13
64833;HTU21D;51290;45.060;38.948;2023-07-16T13:50:27;27.49;40.92
64833;HTU21D;51290;45.060;38.948;2023-07-16T13:52:53;27.55;40.84
64833;HTU21D;51290;45.060;38.948;2023-07-16T13:55:19;27.60;40.89
64833;HTU21D;51290;45.060;38.948;2023-07-16T13:57:45;27.68;40.76
64833;HTU21D;51290;45.060;38.948;2023-07-16T14:00:12;27.78;40.52
64833;HTU21D;51290;45.060;38.948;2023-07-16T14:02:38;27.89;40.42
64833;HTU21D;51290;45.060;38.948;2023-07-16T14:05:05;28.00;40.07
64833;HTU21D;51290;45.060;38.948;2023-07-16T14:07:31;28.04;39.75
64833;HTU21D;51290;45.060;38.948;2023-07-16T14:09:57;28.02;38.65
64833;HTU21D;51290;45.060;38.948;2023-07-16T14:12:23;27.96;39.17
64833;HTU21D;51290;45.060;38.948;2023-07-16T14:14:52;27.91;39.60
64833;HTU21D;51290;45.060;38.948;2023-07-16T14:17:24;27.88;39.53
64833;HTU21D;51290;45.060;38.948;2023-07-16T14:19:53;27.85;39.78
64833;HTU21D;51290;45.060;38.948;2023-07-16T14:22:19;27.83;39.83
64833;HTU21D;51290;45.060;38.948;2023-07-16T14:24:45;27.82;39.91
64833;HTU21D;51290;45.060;38.948;2023-07-16T14:27:17;27.79;39.71
64833;HTU21D;51290;45.060;38.948;2023-07-16T14:29:46;27.75;39.79
64833;HTU21D;51290;45.060;38.948;2023-07-16T14:32:12;27.75;39.91
64833;HTU21D;51290;45.060;38.948;2023-07-16T14:34:39;27.71;39.90
64833;HTU21D;51290;45.060;38.948;2023-07-16T14:37:05;27.67;39.53
64833;HTU21D;51290;45.060;38.948;2023-07-16T14:39:31;27.60;39.55
64833;HTU21D;51290;45.060;38.948;2023-07-16T14:41:57;27.56;39.85
64833;HTU21D;51290;45.060;38.948;2023-07-16T14:44:23;27.52;40.04
64833;HTU21D;51290;45.060;38.948;2023-07-16T14:46:49;27.45;40.07
64833;HTU21D;51290;45.060;38.948;2023-07-16T14:49:15;27.41;40.02
64833;HTU21D;51290;45.060;38.948;2023-07-16T14:51:41;27.32;40.06
64833;HTU21D;51290;45.060;38.948;2023-07-16T14:54:08;27.26;40.11
64833;HTU21D;51290;45.060;38.948;2023-07-16T14:56:35;27.19;40.24
64833;HTU21D;51290;45.060;38.948;2023-07-16T14:59:04;27.09;40.37
64833;HTU21D;51290;45.060;38.948;2023-07-16T15:01:31;27.01;40.26
64833;HTU21D;51290;45.060;38.948;2023-07-16T15:03:57;26.93;40.04
64833;HTU21D;51290;45.060;38.948;2023-07-16T15:06:23;26.85;40.31
64833;HTU21D;51290;45.060;38.948;2023-07-16T15:08:50;26.78;40.22
64833;HTU21D;51290;45.060;38.948;2023-07-16T15:11:17;26.68;39.99